»·PEaware :: DAL1772 KPHX-KATL

DAL1772 :: KPHX-KATL

FLIGHT INFORMATION

Flight Status: Arrived
Operator:
Delta Air Lines
More flights by this operator :: More flights under this callsign
Pilot: Colin A. (19898)
Aircraft: BOEING 737-800
(B738)
More flights by this aircraft type
Origin: KPHX Phoenix Sky Harbor Intl
United States
Destination: KATL Hartsfield-Jackson Atlanta
United States
More flights between these airports :: More routes between these airports
Route: BROAK1 MAXXO IRW FSM MEM HUTCC KNSAW RUSSA GLAVN1
File this flight plan on PilotEdge
Remarks: PBN / A1B1C1D1S1S2 DOF / 181007 REG / N806SB EET / KZFW0117 KZME0148 KZTL0240 OPR / DAL PER / C RMK / TCAS SIMBRIEF
Altitude:
(Current/Filed)
35,000ft
Speed:
(Current/Filed)
459kts
Departed: 06-Oct-18 07:54 PM
Arrived: 06-Oct-18 11:00 PM
Distance/Time
Traveled:
1375nm/3:06
Distance/Time
To Go:
Arrived

Flight Plot

Page will automatically refresh every two minutes.

Flight plan parsing failed; only flown route is shown


Map Options




Map Legend


Flown Route
Filed Route
Departure Airport
Arrival Airport
Navaid (VOR, NDB)
Fix

Horizontal Profiles

Position Reports

Time Latitude Longitude Heading Altitude Ground
Speed
06-Oct-18 19:25 33.436935 -112.008042 269 1142ft 0kts
06-Oct-18 19:26 33.436935 -112.008042 269 1142ft 0kts
06-Oct-18 19:27 33.436935 -112.008042 269 1142ft 0kts
06-Oct-18 19:28 33.436935 -112.008042 269 1142ft 0kts
06-Oct-18 19:29 33.436935 -112.008042 269 1142ft 0kts
06-Oct-18 19:30 33.436935 -112.008042 269 1142ft 0kts
06-Oct-18 19:31 33.436935 -112.008042 269 1142ft 0kts
06-Oct-18 19:32 33.436935 -112.008042 269 1142ft 0kts
06-Oct-18 19:33 33.436935 -112.008042 269 1142ft 0kts
06-Oct-18 19:34 33.436935 -112.008042 269 1142ft 0kts
06-Oct-18 19:35 33.436935 -112.008042 269 1142ft 0kts
06-Oct-18 19:36 33.436935 -112.008042 269 1142ft 0kts
06-Oct-18 19:37 33.436935 -112.008042 269 1142ft 0kts
06-Oct-18 19:38 33.436935 -112.008042 269 1142ft 0kts
06-Oct-18 19:39 33.436935 -112.008042 269 1142ft 0kts
06-Oct-18 19:40 33.436935 -112.008042 269 1142ft 0kts
06-Oct-18 19:41 33.436935 -112.008042 269 1142ft 0kts
06-Oct-18 19:42 33.436935 -112.008042 269 1142ft 0kts
06-Oct-18 19:43 33.436935 -112.008042 269 1142ft 0kts
06-Oct-18 19:44 33.436935 -112.008042 269 1142ft 0kts
06-Oct-18 19:45 33.436935 -112.008029 269 1142ft 0kts
06-Oct-18 19:46 33.436939 -112.007281 269 1142ft 2kts
06-Oct-18 19:47 33.436939 -112.007184 269 1142ft 0kts
06-Oct-18 19:48 33.436939 -112.007185 269 1142ft 0kts
06-Oct-18 19:49 33.439010 -112.005312 90 1142ft 14kts
06-Oct-18 19:50 33.439006 -112.008962 271 1142ft 18kts
06-Oct-18 19:51 33.438983 -112.014802 269 1142ft 19kts
06-Oct-18 19:52 33.438996 -112.021758 271 1142ft 22kts
06-Oct-18 19:53 33.438992 -112.028237 269 1142ft 13kts
06-Oct-18 19:54 33.439792 -112.029695 0 1142ft 0kts
06-Oct-18 19:55 33.440775 -112.029035 80 1142ft 16kts
06-Oct-18 19:56 33.440907 -111.996245 89 1285ft 186kts
06-Oct-18 19:57 33.438447 -111.920303 98 2443ft 256kts
06-Oct-18 19:58 33.440355 -111.829967 82 4054ft 279kts
06-Oct-18 19:59 33.455073 -111.735752 82 7107ft 295kts
06-Oct-18 20:00 33.469906 -111.636714 82 9925ft 311kts
06-Oct-18 20:01 33.486300 -111.527335 82 11653ft 363kts
06-Oct-18 20:02 33.504897 -111.399062 82 13229ft 408kts
06-Oct-18 20:03 33.524485 -111.262662 82 15367ft 426kts
06-Oct-18 20:04 33.557274 -111.122948 72 17297ft 445kts
06-Oct-18 20:05 33.597681 -110.979434 72 19096ft 459kts
06-Oct-18 20:06 33.638675 -110.831908 72 20725ft 474kts
06-Oct-18 20:07 33.674070 -110.705757 72 22043ft 483kts
06-Oct-18 20:08 33.724071 -110.524762 72 23646ft 497kts
06-Oct-18 20:09 33.760263 -110.392250 72 24727ft 505kts
06-Oct-18 20:10 33.804181 -110.230890 72 25966ft 513kts
06-Oct-18 20:11 33.856271 -110.037857 72 27195ft 525kts
06-Oct-18 20:12 33.894128 -109.897912 72 28049ft 532kts
06-Oct-18 20:13 33.947569 -109.699140 72 29439ft 533kts
06-Oct-18 20:14 33.985399 -109.557970 72 30611ft 530kts
06-Oct-18 20:15 34.030034 -109.388739 73 31752ft 530kts
06-Oct-18 20:16 34.074286 -109.220165 73 33015ft 526kts
06-Oct-18 20:17 34.118137 -109.051667 74 34165ft 523kts
06-Oct-18 20:18 34.161565 -108.884459 74 34901ft 525kts
06-Oct-18 20:19 34.205190 -108.716579 74 34918ft 521kts
06-Oct-18 20:20 34.248061 -108.549766 74 34920ft 520kts
06-Oct-18 20:21 34.290731 -108.382583 74 34931ft 520kts
06-Oct-18 20:22 34.333310 -108.215377 74 34949ft 519kts
06-Oct-18 20:23 34.374702 -108.047555 78 34956ft 519kts
06-Oct-18 20:24 34.387507 -107.875512 93 34960ft 511kts
06-Oct-18 20:25 34.387824 -107.703406 93 34946ft 513kts
06-Oct-18 20:26 34.389223 -107.530548 93 34938ft 512kts
06-Oct-18 20:27 34.390778 -107.358213 93 34930ft 512kts
06-Oct-18 20:28 34.391966 -107.185943 93 34923ft 512kts
06-Oct-18 20:29 34.393112 -107.013258 93 34920ft 511kts
06-Oct-18 20:30 34.393710 -106.841791 94 34922ft 509kts
06-Oct-18 20:31 34.397800 -106.670015 85 34922ft 513kts
06-Oct-18 20:32 34.421874 -106.499589 83 34937ft 513kts
06-Oct-18 20:33 34.445939 -106.329727 83 34955ft 511kts
06-Oct-18 20:34 34.470109 -106.160378 83 34975ft 511kts
06-Oct-18 20:35 34.494086 -105.989926 83 34995ft 511kts
06-Oct-18 20:36 34.517494 -105.820814 84 35050ft 509kts
06-Oct-18 20:37 34.540659 -105.651391 84 35069ft 509kts
06-Oct-18 20:38 34.563631 -105.481463 84 35095ft 509kts
06-Oct-18 20:39 34.586279 -105.312089 84 35102ft 508kts
06-Oct-18 20:40 34.608577 -105.143486 85 35099ft 506kts
06-Oct-18 20:41 34.630668 -104.974600 85 35083ft 505kts
06-Oct-18 20:42 34.652434 -104.806327 85 35076ft 504kts
06-Oct-18 20:43 34.673925 -104.638323 86 35072ft 502kts
06-Oct-18 20:44 34.695141 -104.470574 86 35071ft 501kts
06-Oct-18 20:45 34.716019 -104.303611 86 35052ft 499kts
06-Oct-18 20:46 34.736607 -104.137077 86 35050ft 499kts
06-Oct-18 20:47 34.757043 -103.969912 87 35049ft 499kts
06-Oct-18 20:48 34.777078 -103.804012 87 35048ft 496kts
06-Oct-18 20:49 34.796896 -103.637945 87 35047ft 496kts
06-Oct-18 20:50 34.816518 -103.471554 88 35047ft 497kts
06-Oct-18 20:51 34.835904 -103.305195 88 35049ft 497kts
06-Oct-18 20:52 34.855090 -103.138479 88 35055ft 495kts
06-Oct-18 20:53 34.873983 -102.972347 88 35058ft 496kts
06-Oct-18 20:54 34.892702 -102.805622 88 35062ft 496kts
06-Oct-18 20:55 34.911453 -102.636737 88 35081ft 523kts
06-Oct-18 20:56 34.930436 -102.464330 89 35021ft 496kts
06-Oct-18 20:57 34.948291 -102.298029 89 35066ft 495kts
06-Oct-18 20:58 34.965972 -102.131831 89 35070ft 494kts
06-Oct-18 20:59 34.983441 -101.965675 90 35070ft 494kts
06-Oct-18 21:00 35.000678 -101.799432 90 35070ft 494kts
06-Oct-18 21:01 35.027708 -101.534383 90 35071ft 494kts
06-Oct-18 21:02 35.092774 -100.870306 90 35090ft 493kts
06-Oct-18 21:03 35.118821 -100.593386 91 35092ft 494kts
06-Oct-18 21:04 35.134166 -100.426819 91 35091ft 493kts
06-Oct-18 21:05 35.149288 -100.260211 91 35091ft 494kts
06-Oct-18 21:06 35.164229 -100.092988 91 35093ft 494kts
06-Oct-18 21:07 35.178891 -99.926192 91 35094ft 492kts
06-Oct-18 21:08 35.193273 -99.760121 91 35095ft 492kts
06-Oct-18 21:09 35.207481 -99.593249 91 35096ft 493kts
06-Oct-18 21:10 35.221438 -99.426619 91 35095ft 492kts
06-Oct-18 21:11 35.235153 -99.260091 91 35108ft 491kts
06-Oct-18 21:12 35.248580 -99.094251 90 35111ft 491kts
06-Oct-18 21:13 35.261810 -98.928005 90 35100ft 491kts
06-Oct-18 21:14 35.274804 -98.761799 90 35087ft 490kts
06-Oct-18 21:15 35.287581 -98.595454 90 35080ft 491kts
06-Oct-18 21:16 35.300148 -98.428781 90 35087ft 490kts
06-Oct-18 21:17 35.312443 -98.262678 90 35071ft 491kts
06-Oct-18 21:18 35.324545 -98.096055 90 35078ft 491kts
06-Oct-18 21:19 35.336624 -97.929499 90 35083ft 490kts
06-Oct-18 21:20 35.348170 -97.763355 90 35074ft 489kts
06-Oct-18 21:21 35.359296 -97.597335 91 35069ft 488kts
06-Oct-18 21:22 35.362799 -97.432015 94 35061ft 485kts
06-Oct-18 21:23 35.365555 -97.266457 93 35065ft 485kts
06-Oct-18 21:24 35.368713 -97.101642 93 35061ft 485kts
06-Oct-18 21:25 35.371850 -96.936444 93 35060ft 484kts
06-Oct-18 21:26 35.374623 -96.771467 93 35060ft 483kts
06-Oct-18 21:27 35.377126 -96.606912 93 35060ft 483kts
06-Oct-18 21:28 35.379388 -96.442730 93 35061ft 482kts
06-Oct-18 21:29 35.381430 -96.277909 93 35061ft 482kts
06-Oct-18 21:30 35.383247 -96.113709 93 35061ft 482kts
06-Oct-18 21:31 35.384829 -95.949544 93 35061ft 482kts
06-Oct-18 21:32 35.386208 -95.784884 93 35059ft 481kts
06-Oct-18 21:33 35.387353 -95.620972 93 35058ft 481kts
06-Oct-18 21:34 35.388280 -95.456701 93 35057ft 481kts
06-Oct-18 21:35 35.388982 -95.293010 93 35054ft 481kts
06-Oct-18 21:36 35.389464 -95.128870 93 35052ft 481kts
06-Oct-18 21:37 35.389724 -94.965146 92 35050ft 480kts
06-Oct-18 21:38 35.389767 -94.801875 92 35050ft 480kts
06-Oct-18 21:39 35.389719 -94.638308 92 35052ft 480kts
06-Oct-18 21:40 35.389400 -94.474766 92 35058ft 480kts
06-Oct-18 21:41 35.388622 -94.311538 92 35060ft 479kts
06-Oct-18 21:42 35.380442 -94.148761 98 35062ft 477kts
06-Oct-18 21:43 35.368240 -93.986908 97 35070ft 478kts
06-Oct-18 21:44 35.356211 -93.824621 97 35077ft 477kts
06-Oct-18 21:45 35.344603 -93.662747 97 35081ft 476kts
06-Oct-18 21:46 35.332617 -93.501315 97 35081ft 475kts
06-Oct-18 21:47 35.320403 -93.340587 98 35078ft 475kts
06-Oct-18 21:48 35.307919 -93.179421 98 35080ft 475kts
06-Oct-18 21:49 35.295247 -93.018683 98 35080ft 475kts
06-Oct-18 21:50 35.282326 -92.857622 98 35085ft 474kts
06-Oct-18 21:51 35.269277 -92.697620 98 35092ft 473kts
06-Oct-18 21:52 35.255994 -92.537406 99 35092ft 473kts
06-Oct-18 21:53 35.242466 -92.376860 99 35095ft 473kts
06-Oct-18 21:54 35.228774 -92.216898 99 35094ft 472kts
06-Oct-18 21:55 35.214910 -92.057447 99 35096ft 473kts
06-Oct-18 21:56 35.200840 -91.898079 99 35097ft 469kts
06-Oct-18 21:57 35.186618 -91.739383 99 35099ft 469kts
06-Oct-18 21:58 35.172209 -91.580967 99 35100ft 468kts
06-Oct-18 21:59 35.157610 -91.422767 99 35101ft 468kts
06-Oct-18 22:00 35.142805 -91.264630 99 35103ft 467kts
06-Oct-18 22:01 35.127872 -91.107350 99 35108ft 466kts
06-Oct-18 22:02 35.112762 -90.950398 99 35110ft 465kts
06-Oct-18 22:03 35.097469 -90.793674 100 35112ft 464kts
06-Oct-18 22:04 35.082043 -90.637696 100 35114ft 463kts
06-Oct-18 22:05 35.066367 -90.481266 100 35116ft 462kts
06-Oct-18 22:06 35.050794 -90.326082 100 35118ft 462kts
06-Oct-18 22:07 35.034779 -90.170215 100 35108ft 461kts
06-Oct-18 22:08 35.018461 -90.014948 100 35118ft 461kts
06-Oct-18 22:09 34.998437 -89.861542 103 35120ft 456kts
06-Oct-18 22:10 34.976437 -89.708779 103 35120ft 457kts
06-Oct-18 22:11 34.954501 -89.556259 102 35122ft 456kts
06-Oct-18 22:12 34.933075 -89.404365 103 35129ft 456kts
06-Oct-18 22:13 34.911155 -89.251994 103 35138ft 455kts
06-Oct-18 22:14 34.892754 -89.125525 103 35140ft 454kts
06-Oct-18 22:15 34.866810 -88.948981 103 35148ft 453kts
06-Oct-18 22:16 34.848219 -88.823653 103 35148ft 453kts
06-Oct-18 22:17 34.821931 -88.647985 103 35150ft 452kts
06-Oct-18 22:18 34.803029 -88.522779 103 35151ft 451kts
06-Oct-18 22:19 34.780233 -88.372967 103 35153ft 450kts
06-Oct-18 22:20 34.753425 -88.198409 103 35160ft 449kts
06-Oct-18 22:21 34.734233 -88.074483 103 35179ft 448kts
06-Oct-18 22:22 34.707086 -87.900648 104 35185ft 445kts
06-Oct-18 22:23 34.687833 -87.777413 103 35189ft 446kts
06-Oct-18 22:24 34.664436 -87.629583 104 35190ft 445kts
06-Oct-18 22:25 34.640699 -87.482104 104 35192ft 446kts
06-Oct-18 22:26 34.615190 -87.335073 105 35194ft 445kts
06-Oct-18 22:27 34.588074 -87.188644 105 35195ft 444kts
06-Oct-18 22:28 34.561690 -87.041956 105 35191ft 444kts
06-Oct-18 22:29 34.534061 -86.896482 110 35191ft 441kts
06-Oct-18 22:30 34.496454 -86.755327 110 35190ft 439kts
06-Oct-18 22:31 34.459490 -86.614309 110 35193ft 438kts
06-Oct-18 22:32 34.422659 -86.473499 110 35198ft 437kts
06-Oct-18 22:33 34.385915 -86.333968 110 35198ft 427kts
06-Oct-18 22:34 34.352052 -86.206739 111 35185ft 370kts
06-Oct-18 22:35 34.322465 -86.094219 110 35193ft 345kts
06-Oct-18 22:36 34.292237 -85.978158 110 32637ft 387kts
06-Oct-18 22:37 34.257733 -85.846302 109 28640ft 432kts
06-Oct-18 22:38 34.221274 -85.705725 108 24628ft 436kts
06-Oct-18 22:39 34.188762 -85.581643 109 23259ft 381kts
06-Oct-18 22:40 34.157838 -85.464986 109 23177ft 307kts
06-Oct-18 22:41 34.132036 -85.367854 109 23208ft 308kts
06-Oct-18 22:42 34.104550 -85.265226 109 22691ft 354kts
06-Oct-18 22:43 34.070753 -85.142198 109 21706ft 409kts
06-Oct-18 22:44 34.033810 -85.013091 118 20702ft 403kts
06-Oct-18 22:45 33.944011 -84.944580 156 19700ft 393kts
06-Oct-18 22:46 33.862670 -84.859245 136 18705ft 388kts
06-Oct-18 22:47 33.783099 -84.774871 139 17124ft 366kts
06-Oct-18 22:48 33.704028 -84.701351 148 15133ft 366kts
06-Oct-18 22:49 33.617214 -84.641122 148 12664ft 355kts
06-Oct-18 22:50 33.546597 -84.571618 108 11276ft 305kts
06-Oct-18 22:51 33.536286 -84.478090 90 10582ft 268kts
06-Oct-18 22:52 33.536867 -84.389394 90 10014ft 275kts
06-Oct-18 22:53 33.536933 -84.295747 90 8865ft 280kts
06-Oct-18 22:54 33.537045 -84.203132 91 7694ft 275kts
06-Oct-18 22:55 33.537078 -84.112203 90 6489ft 272kts
06-Oct-18 22:56 33.582329 -84.055986 358 5105ft 283kts
06-Oct-18 22:57 33.622263 -84.125818 277 4038ft 265kts
06-Oct-18 22:58 33.631025 -84.208570 274 3997ft 243kts
06-Oct-18 22:59 33.631867 -84.289522 268 3110ft 231kts
06-Oct-18 23:00 33.631839 -84.360238 268 1977ft 187kts
06-Oct-18 23:01 33.631884 -84.419203 269 1087ft 154kts
06-Oct-18 23:02 33.632216 -84.441334 294 1034ft 5kts
06-Oct-18 23:03 33.635350 -84.441939 1 1034ft 17kts
06-Oct-18 23:04 33.637227 -84.440547 2 1034ft 0kts
06-Oct-18 23:05 33.639477 -84.440498 0 1033ft 3kts
06-Oct-18 23:06 33.640004 -84.439773 87 1034ft 0kts
06-Oct-18 23:07 33.640006 -84.439713 88 1034ft 0kts
06-Oct-18 23:08 33.640006 -84.439713 88 1034ft 0kts
06-Oct-18 23:09 33.640006 -84.439713 88 1034ft 0kts
06-Oct-18 23:10 33.640006 -84.439713 88 1034ft 0kts

Navigation Log

Ident Type
Flight plan parsing failed, navigation log unavailable